Time;durP1;ratioP1;P1;durP2;ratioP2;P2;SDS_P1;SDS_P2;PMS_P1;PMS_P2;Temp;Humidity;BMP_temperature;BMP_pressure;BME280_temperature;BME280_humidity;BME280_pressure;Samples;Min_cycle;Max_cycle;Signal;HPM_P1;HPM_P2
2022/10/21 00:01:12;;;;;;;23.20;15.23;;;11.30;99.90;;;;;;5054094;28;20132;-77
2022/10/21 00:03:38;;;;;;;20.33;16.02;;;11.40;99.90;;;;;;5054633;28;20534;-77
2022/10/21 00:06:04;;;;;;;28.90;19.27;;;11.30;99.90;;;;;;5054198;28;20087;-78
2022/10/21 00:08:30;;;;;;;27.38;16.45;;;11.30;99.90;;;;;;5054476;28;20117;-78
2022/10/21 00:10:58;;;;;;;25.17;17.20;;;11.30;99.90;;;;;;5054381;28;20487;-77
2022/10/21 00:13:26;;;;;;;22.77;15.05;;;11.30;99.90;;;;;;5054584;28;20151;-78
2022/10/21 00:16:03;;;;;;;24.00;17.23;;;11.30;99.90;;;;;;5054324;28;20047;-78
2022/10/21 00:18:30;;;;;;;25.95;16.95;;;11.30;99.90;;;;;;5053160;28;20136;-78
2022/10/21 00:20:56;;;;;;;26.27;16.73;;;11.30;99.90;;;;;;5054105;28;20052;-78
2022/10/21 00:23:22;;;;;;;21.17;15.75;;;11.30;99.90;;;;;;5054633;28;20041;-78
2022/10/21 00:25:47;;;;;;;21.75;16.38;;;11.30;99.90;;;;;;5054083;28;20071;-77
2022/10/21 00:28:13;;;;;;;21.48;15.52;;;11.30;99.90;;;;;;5054022;28;20132;-78
2022/10/21 00:30:45;;;;;;;32.38;16.98;;;11.30;99.90;;;;;;5054237;28;20087;-78
2022/10/21 00:33:12;;;;;;;25.98;16.80;;;11.30;99.90;;;;;;5054175;28;20442;-78
2022/10/21 00:35:38;;;;;;;24.75;15.68;;;11.30;99.90;;;;;;5054409;28;20071;-78
2022/10/21 00:38:04;;;;;;;28.10;15.82;;;11.30;99.90;;;;;;5054140;28;20128;-78
2022/10/21 00:40:30;;;;;;;20.38;15.68;;;11.30;99.90;;;;;;5053976;28;20056;-78
2022/10/21 00:42:56;;;;;;;23.95;16.70;;;11.20;99.90;;;;;;5053749;28;20092;-77
2022/10/21 00:45:27;;;;;;;23.52;15.68;;;11.20;99.90;;;;;;5053689;28;20085;-78
2022/10/21 00:47:56;;;;;;;24.73;16.17;;;11.20;99.90;;;;;;5054158;28;20138;-78
2022/10/21 00:50:45;;;;;;;26.10;17.05;;;11.20;99.90;;;;;;5053587;28;20142;-78
2022/10/21 00:53:14;;;;;;;23.55;17.45;;;11.20;99.90;;;;;;5052559;28;20186;-78
2022/10/21 00:55:53;;;;;;;25.20;16.50;;;10.80;99.90;;;;;;5054038;28;20045;-78
2022/10/21 00:58:22;;;;;;;22.00;16.52;;;11.20;99.90;;;;;;5053450;28;20152;-78
2022/10/21 01:00:50;;;;;;;20.08;14.32;;;11.20;99.90;;;;;;5053474;28;20449;-78
2022/10/21 01:03:16;;;;;;;21.63;14.88;;;11.20;99.90;;;;;;5053048;28;20060;-78
2022/10/21 01:05:42;;;;;;;20.70;16.33;;;11.20;99.90;;;;;;5053407;28;20049;-78
2022/10/21 01:08:08;;;;;;;24.80;14.63;;;11.20;99.90;;;;;;5053380;28;20041;-78
2022/10/21 01:10:34;;;;;;;21.52;14.77;;;11.20;99.90;;;;;;5053014;28;20475;-78
2022/10/21 01:13:21;;;;;;;23.45;15.50;;;11.10;99.90;;;;;;5053181;28;20051;-78
2022/10/21 01:16:06;;;;;;;26.90;16.77;;;11.20;99.90;;;;;;5053769;28;20056;-78
2022/10/21 01:18:49;;;;;;;23.80;14.85;;;11.20;99.90;;;;;;5052971;28;20552;-78
2022/10/21 01:21:34;;;;;;;22.45;14.60;;;11.20;99.90;;;;;;5053087;28;20049;-78
2022/10/21 01:24:27;;;;;;;22.77;14.82;;;11.20;99.90;;;;;;5052677;28;20057;-78
2022/10/21 01:27:11;;;;;;;25.42;15.02;;;11.20;99.90;;;;;;5052884;28;20052;-78
2022/10/21 01:29:46;;;;;;;16.95;13.70;;;11.10;99.90;;;;;;5052767;28;20137;-78
2022/10/21 01:32:32;;;;;;;20.33;14.48;;;11.20;99.90;;;;;;5051242;28;20048;-78
2022/10/21 01:35:21;;;;;;;22.38;15.05;;;11.10;99.90;;;;;;5052994;28;20052;-77
2022/10/21 01:38:17;;;;;;;23.20;14.52;;;11.10;99.90;;;;;;5053147;28;20049;-77
2022/10/21 01:40:47;;;;;;;24.05;14.93;;;11.10;99.90;;;;;;5053604;28;20108;-78
2022/10/21 01:43:22;;;;;;;24.10;16.40;;;11.10;99.90;;;;;;5053057;28;20136;-77
2022/10/21 01:45:53;;;;;;;22.52;15.98;;;11.40;99.90;;;;;;5052940;28;20045;-77
2022/10/21 01:48:28;;;;;;;22.48;15.32;;;11.00;99.90;;;;;;5052741;28;20087;-78
2022/10/21 01:50:59;;;;;;;19.65;14.65;;;11.10;99.90;;;;;;5052868;28;20128;-78
2022/10/21 01:53:28;;;;;;;22.38;13.98;;;11.10;99.90;;;;;;5052509;28;20094;-78
2022/10/21 01:55:56;;;;;;;21.60;16.35;;;11.00;99.90;;;;;;5051107;28;20048;-78
2022/10/21 01:58:27;;;;;;;22.85;14.60;;;11.00;99.90;;;;;;5052829;28;20114;-77
2022/10/21 02:00:55;;;;;;;21.15;15.25;;;11.00;99.90;;;;;;5052390;28;20124;-77
2022/10/21 02:03:28;;;;;;;19.67;13.45;;;11.00;99.90;;;;;;5052404;28;20049;-77
2022/10/21 02:05:54;;;;;;;20.77;15.70;;;11.00;99.90;;;;;;5052708;28;20128;-78
2022/10/21 02:08:20;;;;;;;28.58;16.38;;;11.10;99.90;;;;;;5052671;28;20119;-78
2022/10/21 02:10:49;;;;;;;24.17;16.10;;;11.10;99.90;;;;;;5052119;28;20403;-78
2022/10/21 02:13:24;;;;;;;21.85;15.30;;;11.20;99.90;;;;;;5052265;28;20037;-78
2022/10/21 02:15:55;;;;;;;27.33;16.50;;;11.20;99.90;;;;;;5052131;28;20092;-78
2022/10/21 02:18:25;;;;;;;25.85;16.30;;;11.20;99.90;;;;;;5052686;28;20142;-78
2022/10/21 02:21:00;;;;;;;27.63;17.60;;;11.30;99.90;;;;;;5052159;28;20141;-78
2022/10/21 02:23:49;;;;;;;21.27;15.55;;;11.30;99.90;;;;;;5052182;28;20052;-77
2022/10/21 02:26:15;;;;;;;24.48;15.65;;;11.40;99.90;;;;;;5052076;28;20049;-78
2022/10/21 02:28:42;;;;;;;23.38;16.75;;;11.40;99.90;;;;;;5052299;28;20049;-77
2022/10/21 02:31:28;;;;;;;21.58;15.75;;;11.50;99.90;;;;;;5052050;28;20087;-81
2022/10/21 02:34:06;;;;;;;24.60;17.20;;;11.50;99.90;;;;;;5051022;28;20388;-79
2022/10/21 02:36:37;;;;;;;19.13;15.52;;;11.50;99.90;;;;;;5053369;28;20134;-80
2022/10/21 02:39:12;;;;;;;23.00;14.93;;;11.60;99.90;;;;;;5052583;28;20402;-78
2022/10/21 02:41:41;;;;;;;26.75;16.92;;;11.70;99.90;;;;;;5052010;28;20048;-78
2022/10/21 02:44:07;;;;;;;28.67;17.38;;;11.70;99.90;;;;;;5068049;28;20110;-79
2022/10/21 02:46:39;;;;;;;23.88;16.20;;;11.80;99.90;;;;;;5051691;28;20459;-78
2022/10/21 02:49:05;;;;;;;31.75;18.52;;;11.80;99.90;;;;;;5067485;28;20052;-78
2022/10/21 02:51:31;;;;;;;25.45;17.55;;;11.90;99.90;;;;;;5051690;28;20102;-77
2022/10/21 02:53:57;;;;;;;30.85;17.88;;;12.00;99.90;;;;;;5052428;28;20049;-77
2022/10/21 02:56:22;;;;;;;34.80;21.90;;;12.10;99.90;;;;;;5050665;28;20049;-74
2022/10/21 02:58:48;;;;;;;35.42;19.48;;;12.30;99.90;;;;;;5051790;28;20103;-74
2022/10/21 03:01:14;;;;;;;27.33;18.75;;;12.30;99.90;;;;;;5051538;28;20359;-73
2022/10/21 03:03:39;;;;;;;48.13;21.50;;;12.40;99.90;;;;;;5051162;28;20052;-72
2022/10/21 03:06:05;;;;;;;33.20;19.65;;;12.50;99.90;;;;;;5051658;28;20045;-74
2022/10/21 03:08:31;;;;;;;33.05;19.27;;;12.50;99.90;;;;;;5051103;28;20489;-76
2022/10/21 03:10:56;;;;;;;28.92;18.67;;;12.50;99.90;;;;;;5051768;28;20045;-75
2022/10/21 03:13:22;;;;;;;30.58;17.75;;;12.60;99.90;;;;;;5051753;28;20495;-75
2022/10/21 03:15:49;;;;;;;26.85;19.73;;;12.70;99.90;;;;;;5050403;28;20041;-75
2022/10/21 03:18:15;;;;;;;34.78;21.08;;;12.70;99.90;;;;;;5051661;28;20040;-75
2022/10/21 03:20:41;;;;;;;29.95;19.55;;;12.80;99.90;;;;;;5051674;28;20076;-76
2022/10/21 03:23:07;;;;;;;25.15;18.88;;;12.90;99.90;;;;;;5055130;28;20056;-76
2022/10/21 03:25:32;;;;;;;28.77;19.15;;;12.90;99.90;;;;;;5055328;28;20041;-75
2022/10/21 03:27:58;;;;;;;27.65;18.13;;;12.90;99.90;;;;;;5055305;28;20078;-77
2022/10/21 03:30:23;;;;;;;27.33;19.77;;;13.00;99.90;;;;;;5055256;28;20041;-77
2022/10/21 03:32:49;;;;;;;24.00;16.88;;;13.00;99.90;;;;;;5055007;28;20080;-75
2022/10/21 03:35:15;;;;;;;25.13;17.02;;;13.00;99.90;;;;;;5055127;28;20106;-72
2022/10/21 03:37:40;;;;;;;27.05;17.00;;;13.00;99.90;;;;;;5054916;28;20044;-76
2022/10/21 03:40:07;;;;;;;24.52;17.00;;;13.00;99.90;;;;;;5055124;28;20080;-75
2022/10/21 03:42:32;;;;;;;27.55;18.75;;;13.00;99.90;;;;;;5055110;28;20123;-75
2022/10/21 03:44:58;;;;;;;36.28;19.67;;;13.10;99.90;;;;;;5054760;28;20474;-78
2022/10/21 03:47:24;;;;;;;26.77;17.67;;;13.10;99.90;;;;;;5054695;28;20041;-81
2022/10/21 03:49:49;;;;;;;27.98;19.65;;;13.00;99.90;;;;;;5053799;28;20056;-76
2022/10/21 03:52:15;;;;;;;22.08;15.85;;;13.00;99.90;;;;;;5054581;28;20052;-77
2022/10/21 03:54:40;;;;;;;25.65;16.38;;;13.00;99.90;;;;;;5054637;28;20120;-78
2022/10/21 03:57:06;;;;;;;24.27;16.33;;;13.00;99.90;;;;;;5054653;28;20063;-76
2022/10/21 03:59:32;;;;;;;24.80;17.85;;;13.10;99.90;;;;;;5054631;28;20060;-81
2022/10/21 04:01:57;;;;;;;19.92;16.08;;;13.10;99.90;;;;;;5054473;28;20106;-78
2022/10/21 04:04:23;;;;;;;23.23;17.75;;;13.00;99.90;;;;;;5055056;28;20052;-80
2022/10/21 04:06:49;;;;;;;22.55;15.77;;;13.00;99.90;;;;;;5054508;28;20040;-78
2022/10/21 04:09:15;;;;;;;21.55;16.60;;;13.10;99.90;;;;;;5054412;28;20120;-77
2022/10/21 04:11:40;;;;;;;32.42;19.88;;;13.00;99.90;;;;;;5054465;28;20072;-76
2022/10/21 04:14:06;;;;;;;24.50;16.73;;;13.10;99.90;;;;;;5054412;28;20048;-78
2022/10/21 04:16:33;;;;;;;22.58;16.10;;;13.10;99.90;;;;;;5054648;28;20041;-78
2022/10/21 04:18:59;;;;;;;22.13;15.35;;;13.00;99.90;;;;;;5054125;28;20045;-80
2022/10/21 04:21:25;;;;;;;21.77;16.08;;;13.00;99.90;;;;;;5053252;28;20454;-79
2022/10/21 04:23:50;;;;;;;22.55;17.00;;;12.90;99.90;;;;;;5054117;28;20144;-79
2022/10/21 04:26:16;;;;;;;27.25;18.50;;;12.90;99.90;;;;;;5054018;28;20052;-80
2022/10/21 04:28:42;;;;;;;26.38;16.25;;;12.80;99.90;;;;;;5053914;28;20053;-78
2022/10/21 04:31:08;;;;;;;21.60;16.08;;;12.80;99.90;;;;;;5054254;28;20037;-80
2022/10/21 04:33:34;;;;;;;22.95;14.95;;;12.80;99.90;;;;;;5054107;28;20045;-80
2022/10/21 04:35:59;;;;;;;31.08;18.95;;;12.70;99.90;;;;;;5053965;28;20084;-77
2022/10/21 04:38:26;;;;;;;24.27;16.67;;;12.70;99.90;;;;;;5054171;28;20048;-78
2022/10/21 04:40:59;;;;;;;27.70;17.23;;;12.70;99.90;;;;;;5054084;28;20041;-79
2022/10/21 04:43:25;;;;;;;34.28;18.75;;;12.60;99.90;;;;;;5053857;28;20382;-78
2022/10/21 04:45:52;;;;;;;32.97;19.75;;;12.70;99.90;;;;;;5054546;28;20087;-79
2022/10/21 04:48:17;;;;;;;48.20;22.63;;;12.70;99.90;;;;;;5053695;28;20045;-78
2022/10/21 04:50:43;;;;;;;67.75;28.02;;;12.60;99.90;;;;;;5053250;28;20059;-80
2022/10/21 04:53:09;;;;;;;69.88;27.58;;;12.60;99.90;;;;;;5052543;28;20040;-79
2022/10/21 04:55:38;;;;;;;67.20;26.75;;;12.60;99.90;;;;;;5053632;28;20044;-79
2022/10/21 04:58:03;;;;;;;59.08;26.10;;;12.60;99.90;;;;;;5053148;28;20455;-79
2022/10/21 05:00:29;;;;;;;88.38;31.50;;;12.50;99.90;;;;;;5053569;28;20052;-79
2022/10/21 05:02:55;;;;;;;71.00;23.88;;;12.50;99.90;;;;;;5053144;28;20422;-78
2022/10/21 05:05:20;;;;;;;52.17;21.35;;;12.60;99.90;;;;;;5053237;28;20082;-79
2022/10/21 05:07:46;;;;;;;89.10;30.17;;;12.50;99.90;;;;;;5053700;28;20537;-79
2022/10/21 05:10:12;;;;;;;116.28;33.63;;;12.60;99.90;;;;;;5053481;28;20041;-78
2022/10/21 05:12:37;;;;;;;130.75;30.55;;;12.50;99.90;;;;;;5053462;28;20048;-79
2022/10/21 05:15:03;;;;;;;117.90;38.17;;;12.50;99.90;;;;;;5053399;28;20041;-79
2022/10/21 05:17:29;;;;;;;113.53;30.95;;;12.60;99.90;;;;;;5053479;28;20447;-79
2022/10/21 05:19:55;;;;;;;108.25;30.95;;;12.50;99.90;;;;;;5052929;28;20045;-79
2022/10/21 05:22:20;;;;;;;102.45;30.85;;;12.50;99.90;;;;;;5053322;28;20044;-79
2022/10/21 05:24:46;;;;;;;76.82;27.45;;;12.50;99.90;;;;;;5052797;28;20044;-78
2022/10/21 05:27:12;;;;;;;78.32;29.13;;;12.50;99.90;;;;;;5052932;28;20056;-78
2022/10/21 05:29:37;;;;;;;44.63;21.90;;;12.50;99.90;;;;;;5052845;28;20045;-78
2022/10/21 05:32:03;;;;;;;44.40;23.70;;;12.50;99.90;;;;;;5052801;28;20057;-79
2022/10/21 05:34:29;;;;;;;38.33;22.20;;;12.50;99.90;;;;;;5052820;28;20045;-79
2022/10/21 05:36:54;;;;;;;30.48;21.13;;;12.40;99.90;;;;;;5052939;28;20101;-77
2022/10/21 05:39:20;;;;;;;28.85;19.65;;;12.40;99.90;;;;;;5052844;28;20041;-78
2022/10/21 05:41:46;;;;;;;28.75;17.98;;;12.40;99.90;;;;;;5052391;28;20033;-78
2022/10/21 05:44:11;;;;;;;26.73;18.20;;;12.40;99.90;;;;;;5051854;28;20493;-78
2022/10/21 05:46:37;;;;;;;27.13;18.55;;;12.40;99.90;;;;;;5052174;28;20463;-79
2022/10/21 05:49:03;;;;;;;28.60;18.15;;;12.40;99.90;;;;;;5052325;28;20110;-78
2022/10/21 05:51:29;;;;;;;26.38;17.20;;;12.40;99.90;;;;;;5051892;28;20548;-79
2022/10/21 05:53:56;;;;;;;26.35;16.13;;;12.40;99.90;;;;;;5051409;28;20092;-79
2022/10/21 05:56:22;;;;;;;27.20;18.98;;;12.40;99.90;;;;;;5052136;28;20366;-78
2022/10/21 05:58:48;;;;;;;25.73;18.30;;;12.40;99.90;;;;;;5052106;28;20152;-78
2022/10/21 06:01:14;;;;;;;26.95;16.27;;;12.40;99.90;;;;;;5052061;28;20087;-79
2022/10/21 06:03:39;;;;;;;24.23;15.80;;;12.30;99.90;;;;;;5052512;28;20136;-77
2022/10/21 06:06:06;;;;;;;24.80;17.00;;;12.30;99.90;;;;;;5051944;28;20436;-78
2022/10/21 06:08:35;;;;;;;26.90;15.50;;;12.20;99.90;;;;;;5067634;28;20052;-79
2022/10/21 06:11:07;;;;;;;22.63;14.48;;;12.20;99.90;;;;;;5052317;28;20045;-79
2022/10/21 06:13:33;;;;;;;24.10;17.10;;;12.20;99.90;;;;;;5052359;28;20045;-78
2022/10/21 06:15:59;;;;;;;23.05;15.15;;;12.20;99.90;;;;;;5052111;28;20037;-80
2022/10/21 06:18:26;;;;;;;22.83;14.82;;;12.10;99.90;;;;;;5050944;28;20128;-78
2022/10/21 06:20:52;;;;;;;26.88;16.45;;;12.10;99.90;;;;;;5051993;28;20052;-80
2022/10/21 06:23:18;;;;;;;22.35;14.48;;;12.10;99.90;;;;;;5050318;28;20129;-79
2022/10/21 06:25:57;;;;;;;22.25;16.02;;;12.10;99.90;;;;;;5051920;28;20044;-80
2022/10/21 06:28:23;;;;;;;24.00;15.05;;;12.10;99.90;;;;;;5051681;28;20053;-77
2022/10/21 06:30:49;;;;;;;23.80;15.60;;;12.10;99.90;;;;;;5052037;28;20122;-80
2022/10/21 06:33:15;;;;;;;22.52;13.82;;;12.10;99.90;;;;;;5051762;28;20479;-79
2022/10/21 06:35:40;;;;;;;20.65;14.77;;;12.00;99.90;;;;;;5052081;28;20351;-78
2022/10/21 06:38:06;;;;;;;21.55;14.00;;;12.00;99.90;;;;;;5051865;28;20041;-79
2022/10/21 06:40:32;;;;;;;19.60;13.90;;;12.00;99.90;;;;;;5050380;28;20080;-79
2022/10/21 06:42:57;;;;;;;20.70;13.18;;;12.00;99.90;;;;;;5051589;28;20037;-79
2022/10/21 06:45:23;;;;;;;20.80;14.48;;;12.00;99.90;;;;;;5051517;28;20048;-79
2022/10/21 06:47:49;;;;;;;18.20;13.27;;;12.00;99.90;;;;;;5051206;28;20477;-79
2022/10/21 06:50:14;;;;;;;16.63;12.15;;;12.10;99.90;;;;;;5052093;28;20055;-78
2022/10/21 06:52:40;;;;;;;27.20;15.65;;;12.10;99.90;;;;;;5051620;28;20485;-79
2022/10/21 06:55:07;;;;;;;23.67;15.15;;;12.10;99.90;;;;;;5052544;28;20434;-79
2022/10/21 06:57:32;;;;;;;22.23;14.70;;;12.10;99.90;;;;;;5055708;28;20041;-79
2022/10/21 06:59:58;;;;;;;19.75;13.30;;;12.10;99.90;;;;;;5055206;28;20136;-79
2022/10/21 07:02:24;;;;;;;17.80;11.60;;;12.10;99.90;;;;;;5055513;28;20045;-79
2022/10/21 07:04:51;;;;;;;14.70;10.68;;;12.20;99.90;;;;;;5055726;28;20469;-78
2022/10/21 07:07:18;;;;;;;17.52;13.05;;;12.20;99.90;;;;;;5055870;28;20044;-78
2022/10/21 07:09:44;;;;;;;23.13;13.00;;;12.20;99.90;;;;;;5055277;28;20124;-81
2022/10/21 07:12:10;;;;;;;18.90;12.10;;;12.20;99.90;;;;;;5054438;28;20065;-79
2022/10/21 07:14:36;;;;;;;23.45;13.85;;;12.20;99.90;;;;;;5055418;28;20190;-79
2022/10/21 07:17:02;;;;;;;22.88;13.38;;;12.20;99.90;;;;;;5055607;28;20083;-79
2022/10/21 07:19:27;;;;;;;20.13;12.48;;;12.20;99.90;;;;;;5054178;28;20060;-79
2022/10/21 07:21:53;;;;;;;19.45;13.93;;;12.10;99.90;;;;;;5055739;28;20056;-79
2022/10/21 07:24:19;;;;;;;17.48;11.40;;;12.10;99.90;;;;;;5055026;28;20460;-79
2022/10/21 07:26:46;;;;;;;20.08;10.43;;;12.10;99.90;;;;;;5054565;28;20068;-79
2022/10/21 07:29:12;;;;;;;18.30;11.80;;;12.10;99.90;;;;;;5054798;28;20485;-78
2022/10/21 07:31:39;;;;;;;19.98;12.73;;;12.20;99.90;;;;;;5054608;28;20036;-79
2022/10/21 07:34:07;;;;;;;20.48;13.55;;;12.20;99.90;;;;;;5055355;28;20049;-79
2022/10/21 07:36:35;;;;;;;22.15;14.20;;;12.20;99.90;;;;;;5056720;28;20105;-78
2022/10/21 07:39:05;;;;;;;20.75;13.35;;;12.20;99.90;;;;;;5057864;28;20469;-80
2022/10/21 07:41:34;;;;;;;18.08;12.55;;;12.70;99.90;;;;;;5056528;28;20047;-78
2022/10/21 07:44:00;;;;;;;15.65;10.07;;;12.30;99.90;;;;;;5054786;28;20053;-78
2022/10/21 07:46:27;;;;;;;17.85;13.40;;;12.30;99.90;;;;;;5053686;28;20041;-79
2022/10/21 07:48:52;;;;;;;14.93;11.20;;;12.40;99.90;;;;;;5054616;28;20503;-78
2022/10/21 07:51:21;;;;;;;15.95;11.88;;;12.30;99.90;;;;;;5054656;28;20128;-80
2022/10/21 07:53:53;;;;;;;19.67;12.25;;;12.50;99.90;;;;;;5054395;28;20083;-81
2022/10/21 07:56:29;;;;;;;20.63;14.35;;;12.50;99.90;;;;;;5054487;28;20068;-80
2022/10/21 07:58:55;;;;;;;19.83;13.68;;;12.60;99.90;;;;;;5054601;28;20507;-79
2022/10/21 08:01:22;;;;;;;15.98;11.40;;;12.70;99.90;;;;;;5054746;28;20052;-79
2022/10/21 08:03:48;;;;;;;19.67;12.48;;;12.70;99.90;;;;;;5086748;28;20091;-74
2022/10/21 08:06:15;;;;;;;19.98;13.55;;;12.80;99.90;;;;;;5054458;28;20133;-73
2022/10/21 08:08:42;;;;;;;17.30;13.30;;;12.90;99.90;;;;;;5054054;28;20387;-74
2022/10/21 08:11:08;;;;;;;23.67;14.07;;;13.10;99.90;;;;;;5054534;28;20103;-74
2022/10/21 08:13:34;;;;;;;21.20;13.45;;;13.10;99.90;;;;;;5054513;28;20044;-79
2022/10/21 08:16:00;;;;;;;16.55;12.15;;;13.20;99.90;;;;;;5054456;28;20049;-80
2022/10/21 08:18:26;;;;;;;20.70;13.30;;;13.30;99.90;;;;;;5054144;28;20098;-80
2022/10/21 08:20:53;;;;;;;20.60;14.02;;;13.40;99.90;;;;;;5054391;28;20041;-80
2022/10/21 08:23:21;;;;;;;20.50;14.05;;;13.50;99.90;;;;;;5054090;28;20095;-79
2022/10/21 08:25:56;;;;;;;20.60;13.32;;;13.50;99.90;;;;;;5054378;28;20049;-80
2022/10/21 08:28:23;;;;;;;15.25;12.88;;;13.60;99.90;;;;;;5053499;28;20055;-80
2022/10/21 08:30:49;;;;;;;22.27;12.65;;;13.60;99.90;;;;;;5054385;28;20049;-80
2022/10/21 08:33:15;;;;;;;18.10;12.77;;;13.80;99.90;;;;;;5053920;28;20476;-80
2022/10/21 08:35:41;;;;;;;21.00;14.20;;;14.00;99.90;;;;;;5053967;28;20123;-79
2022/10/21 08:38:07;;;;;;;20.83;12.95;;;14.20;99.90;;;;;;5053526;28;20101;-80
2022/10/21 08:40:40;;;;;;;19.05;11.80;;;14.40;99.90;;;;;;5053825;28;20510;-80
2022/10/21 08:43:08;;;;;;;23.92;14.55;;;14.50;99.90;;;;;;5053808;28;20476;-80
2022/10/21 08:45:59;;;;;;;19.08;11.98;;;14.60;99.90;;;;;;5053725;28;20041;-80
2022/10/21 08:48:34;;;;;;;17.65;12.80;;;14.80;99.90;;;;;;5053854;28;20147;-79
2022/10/21 08:51:00;;;;;;;17.05;11.95;;;14.90;99.90;;;;;;5053788;28;20048;-81
2022/10/21 08:53:38;;;;;;;21.02;12.80;;;15.10;99.90;;;;;;5053749;28;20124;-82
2022/10/21 08:56:12;;;;;;;19.63;13.18;;;15.20;99.90;;;;;;5053566;28;20087;-80
2022/10/21 08:58:37;;;;;;;18.95;12.60;;;15.40;99.90;;;;;;5053622;28;20435;-81
2022/10/21 09:01:31;;;;;;;16.90;11.57;;;15.50;99.90;;;;;;5053491;28;20064;-79
2022/10/21 09:04:08;;;;;;;;;;;15.70;99.90;;;;;;5053419;28;20136;-80
2022/10/21 09:06:43;;;;;;;17.05;10.60;;;15.80;99.90;;;;;;5053313;28;19924;-80
2022/10/21 09:09:20;;;;;;;16.23;11.60;;;16.00;99.90;;;;;;5052914;28;20518;-79
2022/10/21 09:12:07;;;;;;;16.55;10.25;;;16.20;99.90;;;;;;5053138;28;20094;-80
2022/10/21 09:14:47;;;;;;;15.38;9.85;;;16.20;99.90;;;;;;5053110;28;20087;-79
2022/10/21 09:17:23;;;;;;;16.95;10.43;;;16.30;99.90;;;;;;5053179;28;20456;-80
2022/10/21 09:20:15;;;;;;;13.43;9.75;;;16.50;99.90;;;;;;5053359;28;20055;-81
2022/10/21 09:22:54;;;;;;;16.50;11.05;;;16.60;99.90;;;;;;5029094;28;20118;-79
2022/10/21 09:25:41;;;;;;;13.48;9.55;;;16.60;99.90;;;;;;5052867;28;20521;-80
2022/10/21 09:28:13;;;;;;;13.63;9.15;;;16.70;99.90;;;;;;5053351;28;20044;-81
2022/10/21 09:30:40;;;;;;;13.23;9.57;;;16.70;99.90;;;;;;5053482;28;20133;-79
2022/10/21 09:33:22;;;;;;;12.43;8.98;;;16.80;99.90;;;;;;5085038;28;20088;-79
2022/10/21 09:36:09;;;;;;;17.00;9.50;;;16.80;99.90;;;;;;5053192;28;20060;-79
2022/10/21 09:39:01;;;;;;;14.93;9.52;;;16.80;99.90;;;;;;5052999;28;20116;-79
2022/10/21 09:41:40;;;;;;;12.45;7.88;;;16.80;99.90;;;;;;5053020;28;20468;-80
2022/10/21 09:44:15;;;;;;;19.05;10.10;;;16.90;99.90;;;;;;5052520;28;20527;-79
2022/10/21 09:46:43;;;;;;;12.15;8.40;;;16.90;99.90;;;;;;5067587;28;20530;-80
2022/10/21 09:49:27;;;;;;;11.88;9.30;;;16.90;99.90;;;;;;5052627;28;20049;-80
2022/10/21 09:51:55;;;;;;;12.98;9.10;;;17.00;99.90;;;;;;5052536;28;20084;-79
2022/10/21 09:54:24;;;;;;;17.60;9.25;;;17.10;99.90;;;;;;5052521;28;20045;-81
2022/10/21 09:57:12;;;;;;;13.15;9.27;;;17.10;99.90;;;;;;5052409;28;20148;-82
2022/10/21 09:59:51;;;;;;;13.60;9.15;;;17.20;99.90;;;;;;5052733;28;20049;-80
2022/10/21 10:02:39;;;;;;;14.65;8.48;;;17.30;99.90;;;;;;5052296;28;20131;-81
2022/10/21 10:05:37;;;;;;;13.85;8.75;;;17.50;99.90;;;;;;5052160;28;20063;-79
2022/10/21 10:08:27;;;;;;;13.80;8.45;;;17.70;99.90;;;;;;5052156;28;20558;-80
2022/10/21 10:11:08;;;;;;;13.93;9.15;;;17.80;99.90;;;;;;5052581;28;20053;-81
2022/10/21 10:13:46;;;;;;;11.40;8.02;;;17.90;99.90;;;;;;5052344;28;20048;-80
2022/10/21 10:16:27;;;;;;;12.40;8.38;;;18.00;99.90;;;;;;5052754;28;20076;-81
2022/10/21 10:19:15;;;;;;;10.77;8.27;;;18.20;99.90;;;;;;5052601;28;20041;-81
2022/10/21 10:21:40;;;;;;;15.90;8.05;;;18.00;99.90;;;;;;5042384;28;20105;-82
2022/10/21 10:24:16;;;;;;;10.65;7.78;;;18.10;99.90;;;;;;5052810;28;20087;-80
2022/10/21 10:26:42;;;;;;;14.98;7.97;;;17.90;99.90;;;;;;5052343;28;20143;-81
2022/10/21 10:29:13;;;;;;;15.95;9.77;;;17.90;99.90;;;;;;5052383;28;20044;-82
2022/10/21 10:31:46;;;;;;;12.43;8.48;;;17.90;99.90;;;;;;5051830;28;20447;-82
2022/10/21 10:34:20;;;;;;;12.52;7.70;;;17.80;99.90;;;;;;5052089;28;20049;-81
2022/10/21 10:36:48;;;;;;;10.23;7.43;;;17.70;99.90;;;;;;5052622;28;20041;-81
2022/10/21 10:39:29;;;;;;;8.98;6.93;;;17.70;99.90;;;;;;5052755;28;20045;-81
2022/10/21 10:41:55;;;;;;;12.48;7.50;;;17.70;99.90;;;;;;5054851;28;20103;-81
2022/10/21 10:44:38;;;;;;;10.15;7.47;;;17.80;99.90;;;;;;5054203;28;20120;-81
2022/10/21 10:47:07;;;;;;;12.32;7.30;;;17.70;99.90;;;;;;5054865;28;20130;-81
2022/10/21 10:49:42;;;;;;;10.52;8.27;;;17.80;99.90;;;;;;5052369;28;20115;-81
2022/10/21 10:52:11;;;;;;;10.55;7.57;;;17.80;99.90;;;;;;5052431;28;20052;-81
2022/10/21 10:54:43;;;;;;;10.80;7.72;;;17.80;99.90;;;;;;5052570;28;20049;-81
2022/10/21 10:57:19;;;;;;;10.52;7.65;;;17.80;99.90;;;;;;5052387;28;20116;-81
2022/10/21 11:00:05;;;;;;;12.13;7.65;;;17.80;99.90;;;;;;5052028;28;20504;-81
2022/10/21 11:02:47;;;;;;;9.80;7.38;;;17.70;99.90;;;;;;5059943;28;20057;-82
2022/10/21 11:05:36;;;;;;;10.80;8.55;;;17.70;99.90;;;;;;5057325;28;20053;-82
2022/10/21 11:08:24;;;;;;;10.98;7.18;;;17.70;99.90;;;;;;5084483;28;20094;-82
2022/10/21 11:10:52;;;;;;;9.77;6.55;;;17.80;99.90;;;;;;5051816;28;20084;-81
2022/10/21 11:13:21;;;;;;;7.82;6.70;;;17.80;99.90;;;;;;5051766;28;20041;-82
2022/10/21 11:16:10;;;;;;;11.25;8.48;;;17.80;99.90;;;;;;5051498;28;20045;-81
2022/10/21 11:19:03;;;;;;;11.20;7.43;;;17.80;99.90;;;;;;5052151;28;20123;-81
2022/10/21 11:21:35;;;;;;;;;;;17.90;99.90;;;;;;5052284;28;20045;-82
2022/10/21 11:24:26;;;;;;;12.50;8.18;;;17.80;99.90;;;;;;5051282;28;20394;-81
2022/10/21 11:26:57;;;;;;;10.68;7.80;;;17.90;99.90;;;;;;5051451;28;20087;-81
2022/10/21 11:29:34;;;;;;;9.15;6.32;;;17.90;99.90;;;;;;5052063;28;20122;-82
2022/10/21 11:32:13;;;;;;;7.47;6.47;;;18.00;99.90;;;;;;5052022;28;20044;-81
2022/10/21 11:35:03;;;;;;;12.60;6.25;;;18.10;99.90;;;;;;5084364;28;20055;-81
2022/10/21 11:37:34;;;;;;;13.52;7.43;;;18.10;99.90;;;;;;5051787;28;20447;-81
2022/10/21 11:40:18;;;;;;;12.25;7.07;;;18.10;99.90;;;;;;5051444;28;20095;-81
2022/10/21 11:42:48;;;;;;;12.85;6.55;;;18.10;99.90;;;;;;5053522;28;20481;-81
2022/10/21 11:45:17;;;;;;;10.40;6.55;;;18.10;99.90;;;;;;5055193;28;20032;-79
2022/10/21 11:48:17;;;;;;;12.88;8.60;;;18.00;99.90;;;;;;5088052;28;20465;-82
2022/10/21 11:51:18;;;;;;;12.15;6.90;;;18.00;99.90;;;;;;5042119;28;20127;-81
2022/10/21 11:54:11;;;;;;;10.80;7.53;;;18.00;99.90;;;;;;5055214;28;20045;-82
2022/10/21 11:56:41;;;;;;;13.70;7.10;;;17.90;99.90;;;;;;5054988;28;20047;-83
2022/10/21 11:59:29;;;;;;;11.35;7.28;;;17.90;99.90;;;;;;5055002;28;20483;-82
2022/10/21 12:02:00;;;;;;;10.45;7.03;;;17.90;99.90;;;;;;5054979;28;20124;-82
2022/10/21 12:04:34;;;;;;;9.27;6.93;;;17.90;99.90;;;;;;5055474;28;20061;-82
2022/10/21 12:07:25;;;;;;;8.95;6.90;;;17.90;99.90;;;;;;5058276;28;20439;-82
2022/10/21 12:10:29;;;;;;;10.00;6.78;;;17.80;99.90;;;;;;5059492;28;20151;-82
2022/10/21 12:12:59;;;;;;;11.82;7.13;;;17.80;99.90;;;;;;5059143;28;20059;-82
2022/10/21 12:15:40;;;;;;;9.95;6.57;;;17.80;99.90;;;;;;5058795;28;20060;-82
2022/10/21 12:18:15;;;;;;;8.48;6.65;;;17.80;99.90;;;;;;5058237;28;20037;-82
2022/10/21 12:20:44;;;;;;;10.85;6.63;;;17.80;99.90;;;;;;5059043;28;20056;-82
2022/10/21 12:23:13;;;;;;;6.95;5.75;;;17.80;99.90;;;;;;5057508;28;20091;-82
2022/10/21 12:26:11;;;;;;;8.00;6.50;;;17.90;99.90;;;;;;5055229;28;20120;-83
2022/10/21 12:28:46;;;;;;;11.95;7.03;;;17.90;99.90;;;;;;5087052;28;20041;-83
2022/10/21 12:31:44;;;;;;;9.32;5.93;;;17.90;99.90;;;;;;5054603;28;20079;-82
2022/10/21 12:34:11;;;;;;;10.85;7.43;;;17.90;99.90;;;;;;5054406;28;20049;-82
2022/10/21 12:36:40;;;;;;;8.50;6.03;;;17.80;99.90;;;;;;5054153;28;20045;-82
2022/10/21 12:39:31;;;;;;;12.52;7.38;;;17.80;99.90;;;;;;5054040;28;20040;-82
2022/10/21 12:42:10;;;;;;;11.20;7.28;;;17.70;99.90;;;;;;5047176;28;20059;-82
2022/10/21 12:44:36;;;;;;;11.52;7.38;;;17.80;99.90;;;;;;5054452;28;20051;-82
2022/10/21 12:47:24;;;;;;;11.68;7.32;;;17.80;99.90;;;;;;5054264;28;20033;-81
2022/10/21 12:50:21;;;;;;;10.00;6.35;;;17.80;99.90;;;;;;5054425;28;20447;-81
2022/10/21 12:53:10;;;;;;;10.45;6.65;;;17.80;99.90;;;;;;5053173;28;20417;-81